createdAt,value
2023-10-18T00:00:47.947Z,990.86
2023-10-18T00:01:48.000Z,990.94
2023-10-18T00:02:48.062Z,990.84
2023-10-18T00:03:48.014Z,990.80
2023-10-18T00:04:47.932Z,990.92
2023-10-18T00:05:47.911Z,990.90
2023-10-18T00:06:47.915Z,990.79
2023-10-18T00:07:47.917Z,990.77
2023-10-18T00:08:47.951Z,990.81
2023-10-18T00:09:48.027Z,990.78
2023-10-18T00:10:47.921Z,990.83
2023-10-18T00:11:47.918Z,990.72
2023-10-18T00:12:47.984Z,990.84
2023-10-18T00:13:47.917Z,990.80
2023-10-18T00:14:47.942Z,990.78
2023-10-18T00:15:48.010Z,990.80
2023-10-18T00:16:47.917Z,990.79
2023-10-18T00:17:47.982Z,990.77
2023-10-18T00:18:47.992Z,990.77
2023-10-18T00:19:47.921Z,990.75
2023-10-18T00:20:47.939Z,990.84
2023-10-18T00:21:47.942Z,990.74
2023-10-18T00:22:47.953Z,990.78
2023-10-18T00:23:47.945Z,990.79
2023-10-18T00:24:47.982Z,990.74
2023-10-18T00:25:47.949Z,990.80
2023-10-18T00:26:47.944Z,990.78
2023-10-18T00:27:47.946Z,990.79
2023-10-18T00:28:47.931Z,990.83
2023-10-18T00:29:47.930Z,990.83
2023-10-18T00:30:48.047Z,990.82
2023-10-18T00:31:48.019Z,990.84
2023-10-18T00:32:48.113Z,990.79
2023-10-18T00:33:48.011Z,990.85
2023-10-18T00:34:47.933Z,990.82
2023-10-18T00:35:47.937Z,990.81
2023-10-18T00:36:48.001Z,990.78
2023-10-18T00:37:48.035Z,990.79
2023-10-18T00:38:47.970Z,990.80
2023-10-18T00:39:47.972Z,990.84
2023-10-18T00:40:48.026Z,990.82
2023-10-18T00:41:47.931Z,990.80
2023-10-18T00:42:48.015Z,990.78
2023-10-18T00:43:48.114Z,990.70
2023-10-18T00:44:47.940Z,990.74
2023-10-18T00:45:47.978Z,990.74
2023-10-18T00:46:47.967Z,990.69
2023-10-18T00:47:48.023Z,990.73
2023-10-18T00:48:48.042Z,990.72
2023-10-18T00:49:47.952Z,990.72
2023-10-18T00:50:47.967Z,990.70
2023-10-18T00:51:48.000Z,990.67
2023-10-18T00:52:47.956Z,990.65
2023-10-18T00:53:48.013Z,990.70
2023-10-18T00:54:48.049Z,990.61
2023-10-18T00:55:47.980Z,990.65
2023-10-18T00:56:48.015Z,990.62
2023-10-18T00:57:49.543Z,990.61
2023-10-18T00:58:48.022Z,990.63
2023-10-18T00:59:48.064Z,990.64
2023-10-18T01:00:48.102Z,990.55
2023-10-18T01:01:48.210Z,990.54
2023-10-18T01:02:48.139Z,990.47
2023-10-18T01:03:52.227Z,990.51
2023-10-18T01:04:48.133Z,990.45
2023-10-18T01:05:48.152Z,990.39
2023-10-18T01:06:48.192Z,990.40
2023-10-18T01:07:48.205Z,990.38
2023-10-18T01:08:48.091Z,990.41
2023-10-18T01:09:48.187Z,990.30
2023-10-18T01:10:48.097Z,990.32
2023-10-18T01:11:48.075Z,990.33
2023-10-18T01:12:48.090Z,990.28
2023-10-18T01:13:48.085Z,990.28
2023-10-18T01:14:48.085Z,990.28
2023-10-18T01:15:48.142Z,990.35
2023-10-18T01:16:48.139Z,990.31
2023-10-18T01:17:48.158Z,990.35
2023-10-18T01:18:48.107Z,990.30
2023-10-18T01:19:48.122Z,990.29
2023-10-18T01:20:48.117Z,990.36
2023-10-18T01:21:48.122Z,990.24
2023-10-18T01:22:48.092Z,990.31
2023-10-18T01:23:48.097Z,990.25
2023-10-18T01:24:48.145Z,990.31
2023-10-18T01:26:48.099Z,990.43
2023-10-18T01:27:48.147Z,990.36
2023-10-18T01:28:48.109Z,990.35
2023-10-18T01:29:48.128Z,990.38
2023-10-18T01:30:48.229Z,990.37
2023-10-18T01:31:48.178Z,990.43
2023-10-18T01:32:48.199Z,990.31
2023-10-18T01:33:48.107Z,990.33
2023-10-18T01:34:48.163Z,990.36
2023-10-18T01:35:48.133Z,990.34
2023-10-18T01:36:48.192Z,990.36
2023-10-18T01:37:48.119Z,990.34
2023-10-18T01:38:48.098Z,990.31
2023-10-18T01:39:48.117Z,990.31
2023-10-18T01:40:48.123Z,990.29
2023-10-18T01:41:48.128Z,990.23
2023-10-18T01:42:48.170Z,990.26
2023-10-18T01:43:48.120Z,990.23
2023-10-18T01:44:48.105Z,990.20
2023-10-18T01:45:48.179Z,990.18
2023-10-18T01:46:48.216Z,990.20
2023-10-18T01:47:53.830Z,990.15
2023-10-18T01:48:48.174Z,990.15
2023-10-18T01:49:48.197Z,990.07
2023-10-18T01:50:48.126Z,990.08
2023-10-18T01:51:48.153Z,990.08
2023-10-18T01:52:48.135Z,990.00
2023-10-18T01:53:48.154Z,989.97
2023-10-18T01:54:48.242Z,990.00
2023-10-18T01:55:48.130Z,989.99
2023-10-18T01:56:48.204Z,989.94
2023-10-18T01:57:48.168Z,989.89
2023-10-18T01:58:48.181Z,989.90
2023-10-18T01:59:48.158Z,989.98
2023-10-18T02:00:48.261Z,990.05
2023-10-18T02:01:48.207Z,989.92
2023-10-18T02:02:48.188Z,989.95
2023-10-18T02:03:48.217Z,990.03
2023-10-18T02:04:52.941Z,989.98
2023-10-18T02:05:48.143Z,989.96
2023-10-18T02:06:48.160Z,990.04
2023-10-18T02:07:48.224Z,990.03
2023-10-18T02:08:48.150Z,990.06
2023-10-18T02:09:48.222Z,990.06
2023-10-18T02:10:48.192Z,990.14
2023-10-18T02:11:48.137Z,990.01
2023-10-18T02:12:48.169Z,989.99
2023-10-18T02:13:48.132Z,989.93
2023-10-18T02:14:48.154Z,989.92
2023-10-18T02:15:48.186Z,989.92
2023-10-18T02:16:48.169Z,989.91
2023-10-18T02:17:48.191Z,989.96
2023-10-18T02:18:48.536Z,989.90
2023-10-18T02:19:48.156Z,989.87
2023-10-18T02:20:48.177Z,989.85
2023-10-18T02:21:48.180Z,989.82
2023-10-18T02:22:48.156Z,989.80
2023-10-18T02:23:48.169Z,989.80
2023-10-18T02:24:48.180Z,989.79
2023-10-18T02:25:48.169Z,989.76
2023-10-18T02:26:48.162Z,989.80
2023-10-18T02:27:48.176Z,989.71
2023-10-18T02:28:48.165Z,989.73
2023-10-18T02:29:48.188Z,989.70
2023-10-18T02:30:48.202Z,989.70
2023-10-18T02:31:48.218Z,989.68
2023-10-18T02:32:48.222Z,989.77
2023-10-18T02:33:48.200Z,989.73
2023-10-18T02:34:48.182Z,989.70
2023-10-18T02:35:48.192Z,989.60
2023-10-18T02:36:48.220Z,989.66
2023-10-18T02:37:48.168Z,989.67
2023-10-18T02:38:48.170Z,989.67
2023-10-18T02:39:58.591Z,989.63
2023-10-18T02:40:48.200Z,989.67
2023-10-18T02:41:48.164Z,989.53
2023-10-18T02:42:48.233Z,989.58
2023-10-18T02:43:48.174Z,989.60
2023-10-18T02:44:48.197Z,989.54
2023-10-18T02:45:48.230Z,989.58
2023-10-18T02:46:48.362Z,989.56
2023-10-18T02:47:48.207Z,989.53
2023-10-18T02:48:48.206Z,989.59
2023-10-18T02:49:48.178Z,989.51
2023-10-18T02:50:48.196Z,989.49
2023-10-18T02:51:48.209Z,989.45
2023-10-18T02:52:48.163Z,989.41
2023-10-18T02:53:48.173Z,989.41
2023-10-18T02:54:48.204Z,989.33
2023-10-18T02:55:48.177Z,989.31
2023-10-18T02:56:48.193Z,989.31
2023-10-18T02:57:48.294Z,989.16
2023-10-18T02:58:48.371Z,989.18
2023-10-18T02:59:48.158Z,989.16
2023-10-18T03:00:48.187Z,989.16
2023-10-18T03:01:48.227Z,989.08
2023-10-18T03:02:48.234Z,989.19
2023-10-18T03:03:48.257Z,989.17
2023-10-18T03:04:48.209Z,989.20
2023-10-18T03:05:48.161Z,989.21
2023-10-18T03:06:48.301Z,989.20
2023-10-18T03:07:48.169Z,989.22
2023-10-18T03:08:48.181Z,989.23
2023-10-18T03:09:48.181Z,989.21
2023-10-18T03:10:48.178Z,989.24
2023-10-18T03:11:48.200Z,989.27
2023-10-18T03:12:48.240Z,989.21
2023-10-18T03:13:48.184Z,989.15
2023-10-18T03:14:48.184Z,989.21
2023-10-18T03:15:59.099Z,989.12
2023-10-18T03:16:48.371Z,989.11
2023-10-18T03:17:48.241Z,989.05
2023-10-18T03:18:48.221Z,989.00
2023-10-18T03:19:48.176Z,989.02
2023-10-18T03:20:48.202Z,988.99
2023-10-18T03:21:48.335Z,989.03
2023-10-18T03:22:48.536Z,989.08
2023-10-18T03:23:48.215Z,989.01
2023-10-18T03:24:48.227Z,989.02
2023-10-18T03:25:48.212Z,989.05
2023-10-18T03:26:48.228Z,989.15
2023-10-18T03:27:48.227Z,989.17
2023-10-18T03:28:48.229Z,989.17
2023-10-18T03:29:48.204Z,989.22
2023-10-18T03:30:48.345Z,989.21
2023-10-18T03:31:48.248Z,989.22
2023-10-18T03:32:48.248Z,989.25
2023-10-18T03:33:48.231Z,989.19
2023-10-18T03:34:48.208Z,989.18
2023-10-18T03:35:48.277Z,989.19
2023-10-18T03:36:48.257Z,989.19
2023-10-18T03:37:48.388Z,989.11
2023-10-18T03:38:48.214Z,989.10
2023-10-18T03:39:48.292Z,989.15
2023-10-18T03:40:48.235Z,989.13
2023-10-18T03:41:48.215Z,989.05
2023-10-18T03:42:48.272Z,989.06
2023-10-18T03:43:48.209Z,989.05
2023-10-18T03:44:48.215Z,988.99
2023-10-18T03:45:48.276Z,989.02
2023-10-18T03:46:48.431Z,988.91
2023-10-18T03:47:48.284Z,988.98
2023-10-18T03:48:48.230Z,988.92
2023-10-18T03:49:48.222Z,989.03
2023-10-18T03:50:48.326Z,988.93
2023-10-18T03:51:48.278Z,989.08
2023-10-18T03:52:48.244Z,989.04
2023-10-18T03:53:48.238Z,989.11
2023-10-18T03:54:48.232Z,988.99
2023-10-18T03:55:48.210Z,988.97
2023-10-18T03:56:48.222Z,989.05
2023-10-18T03:57:48.267Z,989.06
2023-10-18T03:58:48.242Z,988.99
2023-10-18T03:59:48.232Z,989.03
2023-10-18T04:00:48.445Z,989.01
2023-10-18T04:01:48.277Z,989.04
2023-10-18T04:02:48.269Z,989.01
2023-10-18T04:03:48.375Z,988.97
2023-10-18T04:04:48.262Z,989.03
2023-10-18T04:05:48.223Z,988.99
2023-10-18T04:06:48.258Z,988.96
2023-10-18T04:07:48.262Z,988.96
2023-10-18T04:08:48.245Z,988.96
2023-10-18T04:09:48.347Z,988.97
2023-10-18T04:10:48.257Z,988.89
2023-10-18T04:11:48.229Z,988.97
2023-10-18T04:12:48.266Z,988.93
2023-10-18T04:13:48.297Z,988.93
2023-10-18T04:14:48.277Z,988.88
2023-10-18T04:15:48.339Z,988.90
2023-10-18T04:16:48.240Z,988.95
2023-10-18T04:17:48.259Z,988.94
2023-10-18T04:18:48.389Z,988.88
2023-10-18T04:19:48.674Z,988.90
2023-10-18T04:20:48.259Z,988.88
2023-10-18T04:21:48.248Z,988.80
2023-10-18T04:22:48.234Z,988.77
2023-10-18T04:23:48.235Z,988.78
2023-10-18T04:24:48.262Z,988.77
2023-10-18T04:25:48.283Z,988.78
2023-10-18T04:26:48.250Z,988.84
2023-10-18T04:27:48.281Z,988.81
2023-10-18T04:28:48.222Z,988.74
2023-10-18T04:29:48.250Z,988.83
2023-10-18T04:30:48.270Z,988.84
2023-10-18T04:31:48.272Z,988.72
2023-10-18T04:32:48.331Z,988.64
2023-10-18T04:33:48.269Z,988.72
2023-10-18T04:34:48.258Z,988.65
2023-10-18T04:35:48.304Z,988.59
2023-10-18T04:36:48.275Z,988.62
2023-10-18T04:37:48.266Z,988.57
2023-10-18T04:38:48.300Z,988.54
2023-10-18T04:39:48.283Z,988.59
2023-10-18T04:40:48.260Z,988.59
2023-10-18T04:41:48.254Z,988.47
2023-10-18T04:42:48.281Z,988.50
2023-10-18T04:43:48.241Z,988.45
2023-10-18T04:44:48.245Z,988.44
2023-10-18T04:45:48.345Z,988.34
2023-10-18T04:46:48.296Z,988.31
2023-10-18T04:47:48.299Z,988.31
2023-10-18T04:48:48.272Z,988.30
2023-10-18T04:49:48.248Z,988.25
2023-10-18T04:50:48.272Z,988.27
2023-10-18T04:51:48.272Z,988.12
2023-10-18T04:52:48.236Z,988.15
2023-10-18T04:53:48.284Z,988.07
2023-10-18T04:54:48.281Z,988.07
2023-10-18T04:55:48.494Z,988.23
2023-10-18T04:56:48.551Z,988.22
2023-10-18T04:57:48.331Z,988.08
2023-10-18T04:58:48.279Z,988.13
2023-10-18T04:59:48.257Z,988.14
2023-10-18T05:00:48.334Z,988.13
2023-10-18T05:01:48.395Z,988.06
2023-10-18T05:02:48.324Z,988.11
2023-10-18T05:03:48.372Z,988.09
2023-10-18T05:04:48.562Z,988.13
2023-10-18T05:05:48.247Z,988.14
2023-10-18T05:06:48.298Z,988.14
2023-10-18T05:07:48.311Z,988.15
2023-10-18T05:08:48.284Z,988.13
2023-10-18T05:09:48.299Z,988.15
2023-10-18T05:10:48.267Z,988.14
2023-10-18T05:11:48.278Z,988.15
2023-10-18T05:12:48.351Z,988.12
2023-10-18T05:13:48.280Z,988.05
2023-10-18T05:14:53.301Z,988.12
2023-10-18T05:15:48.335Z,988.05
2023-10-18T05:16:48.407Z,988.01
2023-10-18T05:17:48.319Z,987.99
2023-10-18T05:18:48.302Z,987.96
2023-10-18T05:19:48.291Z,987.96
2023-10-18T05:20:48.655Z,987.98
2023-10-18T05:21:48.320Z,987.93
2023-10-18T05:22:48.279Z,987.97
2023-10-18T05:23:48.277Z,987.97
2023-10-18T05:24:48.530Z,988.02
2023-10-18T05:25:48.284Z,987.98
2023-10-18T05:26:48.283Z,987.94
2023-10-18T05:27:48.628Z,988.00
2023-10-18T05:28:48.454Z,987.96
2023-10-18T05:29:48.270Z,987.91
2023-10-18T05:30:48.323Z,987.93
2023-10-18T05:31:48.398Z,987.97
2023-10-18T05:32:50.778Z,987.89
2023-10-18T05:33:48.349Z,987.95
2023-10-18T05:34:53.307Z,987.93
2023-10-18T05:35:48.295Z,987.86
2023-10-18T05:36:48.396Z,987.95
2023-10-18T05:37:48.293Z,987.98
2023-10-18T05:38:48.260Z,988.02
2023-10-18T05:39:48.326Z,988.04
2023-10-18T05:40:48.331Z,988.00
2023-10-18T05:41:48.320Z,987.94
2023-10-18T05:42:48.288Z,988.01
2023-10-18T05:43:48.299Z,987.95
2023-10-18T05:44:48.277Z,987.94
2023-10-18T05:45:48.400Z,987.99
2023-10-18T05:46:48.455Z,987.90
2023-10-18T05:47:48.399Z,987.91
2023-10-18T05:48:48.381Z,987.91
2023-10-18T05:49:48.310Z,988.03
2023-10-18T05:50:48.479Z,987.98
2023-10-18T05:51:48.301Z,988.00
2023-10-18T05:52:48.268Z,987.91
2023-10-18T05:53:48.274Z,988.00
2023-10-18T05:54:48.330Z,987.96
2023-10-18T05:55:48.352Z,988.01
2023-10-18T05:56:48.311Z,987.90
2023-10-18T05:57:48.320Z,987.92
2023-10-18T05:58:48.322Z,987.98
2023-10-18T05:59:48.330Z,988.02
2023-10-18T06:00:48.438Z,988.01
2023-10-18T06:01:48.458Z,987.95
2023-10-18T06:02:48.343Z,987.95
2023-10-18T06:03:48.340Z,987.95
2023-10-18T06:04:48.347Z,987.95
2023-10-18T06:05:48.289Z,987.93
2023-10-18T06:06:48.385Z,987.99
2023-10-18T06:07:48.310Z,987.96
2023-10-18T06:08:48.386Z,987.90
2023-10-18T06:09:48.717Z,987.96
2023-10-18T06:10:48.351Z,987.93
2023-10-18T06:11:48.290Z,987.90
2023-10-18T06:12:48.339Z,987.97
2023-10-18T06:13:48.314Z,987.99
2023-10-18T06:14:48.286Z,987.94
2023-10-18T06:15:48.422Z,987.97
2023-10-18T06:16:48.411Z,987.96
2023-10-18T06:17:48.753Z,987.96
2023-10-18T06:18:48.345Z,987.97
2023-10-18T06:19:48.342Z,987.92
2023-10-18T06:20:48.370Z,987.93
2023-10-18T06:21:48.323Z,987.96
2023-10-18T06:22:48.353Z,987.95
2023-10-18T06:23:48.340Z,987.95
2023-10-18T06:24:48.341Z,987.83
2023-10-18T06:25:48.357Z,987.85
2023-10-18T06:26:48.321Z,987.84
2023-10-18T06:27:48.373Z,987.82
2023-10-18T06:28:48.352Z,987.82
2023-10-18T06:29:48.346Z,987.84
2023-10-18T06:30:48.378Z,987.86
2023-10-18T06:31:48.416Z,987.87
2023-10-18T06:32:48.374Z,987.89
2023-10-18T06:33:48.323Z,987.87
2023-10-18T06:34:48.354Z,987.88
2023-10-18T06:35:49.516Z,987.89
2023-10-18T06:36:48.407Z,987.86
2023-10-18T06:37:48.376Z,987.83
2023-10-18T06:38:50.222Z,987.86
2023-10-18T06:39:48.392Z,987.94
2023-10-18T06:41:04.458Z,987.83
2023-10-18T06:41:48.358Z,987.92
2023-10-18T06:42:48.398Z,987.93
2023-10-18T06:43:48.341Z,987.90
2023-10-18T06:44:48.353Z,987.92
2023-10-18T06:45:48.405Z,987.81
2023-10-18T06:46:48.496Z,987.83
2023-10-18T06:47:48.404Z,987.80
2023-10-18T06:48:59.880Z,987.77
2023-10-18T06:49:48.450Z,987.78
2023-10-18T06:50:48.380Z,987.70
2023-10-18T06:51:48.468Z,987.73
2023-10-18T06:52:48.495Z,987.67
2023-10-18T06:53:48.368Z,987.80
2023-10-18T06:54:48.398Z,987.70
2023-10-18T06:55:48.367Z,987.63
2023-10-18T06:56:48.368Z,987.58
2023-10-18T06:57:48.419Z,987.59
2023-10-18T06:58:48.387Z,987.54
2023-10-18T06:59:50.743Z,987.51
2023-10-18T07:00:48.554Z,987.62
2023-10-18T07:01:48.448Z,987.69
2023-10-18T07:02:48.392Z,987.59
2023-10-18T07:03:48.425Z,987.58
2023-10-18T07:04:48.363Z,987.55
2023-10-18T07:05:48.384Z,987.57
2023-10-18T07:06:48.409Z,987.61
2023-10-18T07:07:48.391Z,987.57
2023-10-18T07:08:48.420Z,987.47
2023-10-18T07:09:48.421Z,987.58
2023-10-18T07:10:48.377Z,987.50
2023-10-18T07:11:52.238Z,987.52
2023-10-18T07:12:48.394Z,987.56
2023-10-18T07:13:48.468Z,987.51
2023-10-18T07:14:48.373Z,987.59
2023-10-18T07:15:48.419Z,987.59
2023-10-18T07:16:48.452Z,987.52
2023-10-18T07:17:48.466Z,987.59
2023-10-18T07:18:48.431Z,987.57
2023-10-18T07:19:48.412Z,987.51
2023-10-18T07:20:48.405Z,987.43
2023-10-18T07:21:48.445Z,987.39
2023-10-18T07:22:48.391Z,987.30
2023-10-18T07:23:48.460Z,987.40
2023-10-18T07:24:48.433Z,987.42
2023-10-18T07:25:58.288Z,987.34
2023-10-18T07:26:48.381Z,987.47
2023-10-18T07:27:48.420Z,987.33
2023-10-18T07:28:48.431Z,987.36
2023-10-18T07:29:48.419Z,987.30
2023-10-18T07:30:48.450Z,987.40
2023-10-18T07:31:48.642Z,987.35
2023-10-18T07:32:48.471Z,987.34
2023-10-18T07:33:48.370Z,987.31
2023-10-18T07:34:48.439Z,987.32
2023-10-18T07:35:48.407Z,987.28
2023-10-18T07:36:48.457Z,987.28
2023-10-18T07:37:48.415Z,987.32
2023-10-18T07:38:48.446Z,987.25
2023-10-18T07:39:48.474Z,987.33
2023-10-18T07:40:48.410Z,987.30
2023-10-18T07:41:48.401Z,987.20
2023-10-18T07:42:48.446Z,987.26
2023-10-18T07:43:48.383Z,987.26
2023-10-18T07:44:48.414Z,987.28
2023-10-18T07:45:48.459Z,987.18
2023-10-18T07:46:48.405Z,987.19
2023-10-18T07:47:48.441Z,987.17
2023-10-18T07:48:48.470Z,987.25
2023-10-18T07:49:48.465Z,987.16
2023-10-18T07:50:48.404Z,987.14
2023-10-18T07:51:48.492Z,987.18
2023-10-18T07:52:48.455Z,987.16
2023-10-18T07:53:48.445Z,987.11
2023-10-18T07:54:48.478Z,987.16
2023-10-18T07:55:48.416Z,987.09
2023-10-18T07:56:48.432Z,987.12
2023-10-18T07:57:48.457Z,987.12
2023-10-18T07:58:48.476Z,987.09
2023-10-18T07:59:48.419Z,987.06
2023-10-18T08:00:48.446Z,987.09
2023-10-18T08:01:48.660Z,987.01
2023-10-18T08:02:48.458Z,987.05
2023-10-18T08:03:48.629Z,987.00
2023-10-18T08:04:48.595Z,986.98
2023-10-18T08:05:48.542Z,987.04
2023-10-18T08:06:48.441Z,987.03
2023-10-18T08:07:48.431Z,986.96
2023-10-18T08:08:48.606Z,986.93
2023-10-18T08:09:48.490Z,986.91
2023-10-18T08:10:48.472Z,986.95
2023-10-18T08:11:48.441Z,986.94
2023-10-18T08:12:48.451Z,986.88
2023-10-18T08:13:48.447Z,986.89
2023-10-18T08:14:48.464Z,986.91
2023-10-18T08:15:48.564Z,986.86
2023-10-18T08:16:48.469Z,986.92
2023-10-18T08:17:48.435Z,986.88
2023-10-18T08:18:48.496Z,986.86
2023-10-18T08:19:48.491Z,986.79
2023-10-18T08:20:48.433Z,986.85
2023-10-18T08:21:48.465Z,986.77
2023-10-18T08:22:48.420Z,986.77
2023-10-18T08:23:48.463Z,986.72
2023-10-18T08:24:48.529Z,986.75
2023-10-18T08:25:48.483Z,986.66
2023-10-18T08:26:48.667Z,986.71
2023-10-18T08:27:48.488Z,986.72
2023-10-18T08:28:48.456Z,986.70
2023-10-18T08:29:48.460Z,986.62
2023-10-18T08:30:48.590Z,986.63
2023-10-18T08:31:48.512Z,986.70
2023-10-18T08:32:48.477Z,986.60
2023-10-18T08:33:48.473Z,986.64
2023-10-18T08:34:48.456Z,986.53
2023-10-18T08:35:48.481Z,986.55
2023-10-18T08:36:48.559Z,986.62
2023-10-18T08:37:48.455Z,986.56
2023-10-18T08:38:48.487Z,986.53
2023-10-18T08:39:48.614Z,986.49
2023-10-18T08:40:48.468Z,986.47
2023-10-18T08:41:48.472Z,986.45
2023-10-18T08:42:48.482Z,986.41
2023-10-18T08:43:48.485Z,986.41
2023-10-18T08:44:48.461Z,986.32
2023-10-18T08:45:48.470Z,986.33
2023-10-18T08:46:49.809Z,986.28
2023-10-18T08:47:48.721Z,986.27
2023-10-18T08:48:48.485Z,986.30
2023-10-18T08:49:48.669Z,986.29
2023-10-18T08:50:48.476Z,986.23
2023-10-18T08:51:48.490Z,986.22
2023-10-18T08:52:48.476Z,986.21
2023-10-18T08:53:48.485Z,986.08
2023-10-18T08:54:48.485Z,985.99
2023-10-18T08:55:48.505Z,986.03
2023-10-18T08:56:48.487Z,986.05
2023-10-18T08:57:48.481Z,986.09
2023-10-18T08:58:48.504Z,986.04
2023-10-18T08:59:48.496Z,986.09
2023-10-18T09:00:48.537Z,986.08
2023-10-18T09:01:48.583Z,986.23
2023-10-18T09:02:48.558Z,986.06
2023-10-18T09:03:48.687Z,986.16
2023-10-18T09:04:48.593Z,986.18
2023-10-18T09:05:48.502Z,986.18
2023-10-18T09:06:48.517Z,986.17
2023-10-18T09:07:48.494Z,986.21
2023-10-18T09:08:48.480Z,986.20
2023-10-18T09:09:48.476Z,986.19
2023-10-18T09:10:48.576Z,986.11
2023-10-18T09:11:48.533Z,986.09
2023-10-18T09:12:48.529Z,986.17
2023-10-18T09:13:48.564Z,986.09
2023-10-18T09:14:48.482Z,986.17
2023-10-18T09:15:59.620Z,986.12
2023-10-18T09:16:48.567Z,986.13
2023-10-18T09:17:48.555Z,986.21
2023-10-18T09:18:48.508Z,986.13
2023-10-18T09:19:48.514Z,986.12
2023-10-18T09:20:48.470Z,986.10
2023-10-18T09:21:48.495Z,986.10
2023-10-18T09:22:48.528Z,986.05
2023-10-18T09:23:48.519Z,986.10
2023-10-18T09:24:48.530Z,986.12
2023-10-18T09:25:48.496Z,986.16
2023-10-18T09:26:48.516Z,986.07
2023-10-18T09:27:48.527Z,986.07
2023-10-18T09:28:48.721Z,986.12
2023-10-18T09:29:48.546Z,986.06
2023-10-18T09:30:48.603Z,986.03
2023-10-18T09:31:48.581Z,985.97
2023-10-18T09:32:48.596Z,985.98
2023-10-18T09:33:48.526Z,985.97
2023-10-18T09:34:48.515Z,985.98
2023-10-18T09:35:48.492Z,986.03
2023-10-18T09:36:49.500Z,985.95
2023-10-18T09:37:48.540Z,985.97
2023-10-18T09:38:48.553Z,985.96
2023-10-18T09:39:48.549Z,985.96
2023-10-18T09:40:48.525Z,985.90
2023-10-18T09:41:48.530Z,985.90
2023-10-18T09:42:48.552Z,985.89
2023-10-18T09:43:48.752Z,985.83
2023-10-18T09:44:48.524Z,985.87
2023-10-18T09:45:48.567Z,985.79
2023-10-18T09:46:48.583Z,985.84
2023-10-18T09:47:48.583Z,985.86
2023-10-18T09:48:48.575Z,985.81
2023-10-18T09:49:48.593Z,985.83
2023-10-18T09:50:48.533Z,985.69
2023-10-18T09:51:48.533Z,985.83
2023-10-18T09:52:48.624Z,985.76
2023-10-18T09:53:48.578Z,985.73
2023-10-18T09:54:48.556Z,985.66
2023-10-18T09:55:48.527Z,985.66
2023-10-18T09:56:48.571Z,985.67
2023-10-18T09:57:48.546Z,985.59
2023-10-18T09:58:48.568Z,985.58
2023-10-18T09:59:48.584Z,985.52
2023-10-18T10:00:48.601Z,985.50
2023-10-18T10:01:48.632Z,985.56
2023-10-18T10:02:48.602Z,985.46
2023-10-18T10:03:48.639Z,985.37
2023-10-18T10:04:48.551Z,985.41
2023-10-18T10:05:48.553Z,985.33
2023-10-18T10:06:48.550Z,985.28
2023-10-18T10:07:48.853Z,985.26
2023-10-18T10:08:48.547Z,985.17
2023-10-18T10:09:48.550Z,985.19
2023-10-18T10:10:48.554Z,985.19
2023-10-18T10:11:48.612Z,985.16
2023-10-18T10:12:48.579Z,985.18
2023-10-18T10:13:48.583Z,985.24
2023-10-18T10:14:48.577Z,985.19
2023-10-18T10:15:48.655Z,985.18
2023-10-18T10:16:48.657Z,985.15
2023-10-18T10:17:48.704Z,985.05
2023-10-18T10:18:48.613Z,985.16
2023-10-18T10:19:48.564Z,985.14
2023-10-18T10:20:48.604Z,985.09
2023-10-18T10:21:48.571Z,985.12
2023-10-18T10:22:48.572Z,985.09
2023-10-18T10:23:48.575Z,985.06
2023-10-18T10:24:55.704Z,985.05
2023-10-18T10:26:18.226Z,984.96
2023-10-18T10:26:48.610Z,985.03
2023-10-18T10:27:48.628Z,984.96
2023-10-18T10:28:48.580Z,984.94
2023-10-18T10:29:48.598Z,984.91
2023-10-18T10:30:48.638Z,984.88
2023-10-18T10:31:48.649Z,984.85
2023-10-18T10:32:48.684Z,984.93
2023-10-18T10:33:48.603Z,984.87
2023-10-18T10:34:48.618Z,984.88
2023-10-18T10:35:48.610Z,984.79
2023-10-18T10:36:48.592Z,984.83
2023-10-18T10:37:48.689Z,984.74
2023-10-18T10:38:48.606Z,984.77
2023-10-18T10:39:48.594Z,984.66
2023-10-18T10:40:48.600Z,984.76
2023-10-18T10:41:48.628Z,984.66
2023-10-18T10:42:48.605Z,984.79
2023-10-18T10:43:48.586Z,984.66
2023-10-18T10:44:48.609Z,984.65
2023-10-18T10:45:48.682Z,984.63
2023-10-18T10:46:48.710Z,984.61
2023-10-18T10:47:48.694Z,984.64
2023-10-18T10:48:48.624Z,984.59
2023-10-18T10:49:48.620Z,984.60
2023-10-18T10:50:48.708Z,984.56
2023-10-18T10:51:48.615Z,984.57
2023-10-18T10:52:48.663Z,984.56
2023-10-18T10:53:48.634Z,984.59
2023-10-18T10:54:48.608Z,984.54
2023-10-18T10:55:48.616Z,984.50
2023-10-18T10:56:48.612Z,984.48
2023-10-18T10:57:48.634Z,984.46
2023-10-18T10:58:48.617Z,984.47
2023-10-18T10:59:48.611Z,984.50
2023-10-18T11:00:48.645Z,984.45
2023-10-18T11:01:48.687Z,984.37
2023-10-18T11:02:48.735Z,984.39
2023-10-18T11:03:48.619Z,984.46
2023-10-18T11:04:48.662Z,984.49
2023-10-18T11:05:48.630Z,984.49
2023-10-18T11:06:48.631Z,984.47
2023-10-18T11:07:48.760Z,984.35
2023-10-18T11:08:48.616Z,984.41
2023-10-18T11:09:48.637Z,984.34
2023-10-18T11:10:48.642Z,984.33
2023-10-18T11:11:48.649Z,984.36
2023-10-18T11:12:48.636Z,984.31
2023-10-18T11:13:48.653Z,984.35
2023-10-18T11:14:48.639Z,984.21
2023-10-18T11:15:48.697Z,984.23
2023-10-18T11:16:48.705Z,984.25
2023-10-18T11:17:49.106Z,984.22
2023-10-18T11:18:48.663Z,984.16
2023-10-18T11:19:48.635Z,984.20
2023-10-18T11:20:48.646Z,984.10
2023-10-18T11:21:48.647Z,984.09
2023-10-18T11:22:48.654Z,984.12
2023-10-18T11:23:48.718Z,984.03
2023-10-18T11:24:48.649Z,984.02
2023-10-18T11:25:48.662Z,984.07
2023-10-18T11:26:48.654Z,983.98
2023-10-18T11:27:48.658Z,983.92
2023-10-18T11:28:48.669Z,983.93
2023-10-18T11:29:48.650Z,983.86
2023-10-18T11:30:48.695Z,983.87
2023-10-18T11:31:48.806Z,983.76
2023-10-18T11:32:48.778Z,983.82
2023-10-18T11:33:48.783Z,983.66
2023-10-18T11:34:48.685Z,983.75
2023-10-18T11:35:48.665Z,983.69
2023-10-18T11:36:48.653Z,983.70
2023-10-18T11:37:48.674Z,983.75
2023-10-18T11:38:48.684Z,983.72
2023-10-18T11:39:48.671Z,983.77
2023-10-18T11:40:48.676Z,983.79
2023-10-18T11:41:48.707Z,983.75
2023-10-18T11:42:48.667Z,983.65
2023-10-18T11:43:48.695Z,983.72
2023-10-18T11:44:48.669Z,983.67
2023-10-18T11:45:48.715Z,983.58
2023-10-18T11:46:48.712Z,983.56
2023-10-18T11:47:48.703Z,983.58
2023-10-18T11:48:48.681Z,983.52
2023-10-18T11:49:48.733Z,983.54
2023-10-18T11:50:49.155Z,983.49
2023-10-18T11:51:48.686Z,983.53
2023-10-18T11:52:48.726Z,983.53
2023-10-18T11:53:48.689Z,983.49
2023-10-18T11:54:48.928Z,983.49
2023-10-18T11:55:48.643Z,983.47
2023-10-18T11:56:48.669Z,983.45
2023-10-18T11:57:48.706Z,983.48
2023-10-18T11:58:48.689Z,983.44
2023-10-18T11:59:48.722Z,983.46
2023-10-18T12:00:48.680Z,983.44
2023-10-18T12:01:48.751Z,983.34
2023-10-18T12:02:48.755Z,983.39
2023-10-18T12:03:48.748Z,983.31
2023-10-18T12:04:48.774Z,983.39
2023-10-18T12:05:48.721Z,983.31
2023-10-18T12:06:48.712Z,983.38
2023-10-18T12:07:48.713Z,983.28
2023-10-18T12:08:48.990Z,983.31
2023-10-18T12:09:48.725Z,983.37
2023-10-18T12:10:48.730Z,983.28
2023-10-18T12:11:48.726Z,983.32
2023-10-18T12:12:48.701Z,983.27
2023-10-18T12:13:48.695Z,983.30
2023-10-18T12:14:48.711Z,983.31
2023-10-18T12:15:48.765Z,983.20
2023-10-18T12:16:48.822Z,983.22
2023-10-18T12:17:48.805Z,983.22
2023-10-18T12:18:48.707Z,983.20
2023-10-18T12:19:48.715Z,983.13
2023-10-18T12:20:48.705Z,983.15
2023-10-18T12:21:48.710Z,983.15
2023-10-18T12:22:48.741Z,983.19
2023-10-18T12:23:48.764Z,983.18
2023-10-18T12:24:48.710Z,983.08
2023-10-18T12:25:48.724Z,983.12
2023-10-18T12:26:48.709Z,982.99
2023-10-18T12:27:48.729Z,983.07
2023-10-18T12:28:48.753Z,982.98
2023-10-18T12:29:48.733Z,983.02